createdAt,value
2023-05-22T00:00:39.910Z,190.8
2023-05-22T00:15:41.773Z,176.4
2023-05-22T00:30:43.405Z,18
2023-05-22T00:45:45.059Z,156.6
2023-05-22T01:00:46.672Z,7.2
2023-05-22T01:15:48.342Z,1.8
2023-05-22T01:30:50.028Z,1.8
2023-05-22T01:45:51.717Z,0
2023-05-22T02:00:53.394Z,0
2023-05-22T02:15:55.055Z,0
2023-05-22T02:30:56.790Z,3.6
2023-05-22T02:45:58.451Z,1.8
2023-05-22T03:01:00.106Z,0
2023-05-22T03:16:01.805Z,0
2023-05-22T03:31:03.529Z,0
2023-05-22T03:46:05.243Z,0
2023-05-22T04:01:06.882Z,0
2023-05-22T04:16:08.666Z,0
2023-05-22T04:31:10.372Z,0
2023-05-22T04:46:12.099Z,0
2023-05-22T05:01:13.837Z,0
2023-05-22T05:16:15.506Z,0
2023-05-22T05:31:17.141Z,0
2023-05-22T05:46:18.817Z,0
2023-05-22T06:01:20.497Z,0
2023-05-22T06:16:22.175Z,0
2023-05-22T06:31:23.830Z,0
2023-05-22T06:46:26.236Z,0
2023-05-22T07:01:28.030Z,0
2023-05-22T07:16:29.759Z,0
2023-05-22T07:31:31.507Z,0
2023-05-22T07:46:33.245Z,0
2023-05-22T08:01:34.966Z,0
2023-05-22T08:16:36.666Z,0
2023-05-22T08:31:38.683Z,0
2023-05-22T08:46:40.507Z,0
2023-05-22T09:01:42.132Z,0
2023-05-22T09:16:43.824Z,0
2023-05-22T09:31:45.540Z,0
2023-05-22T09:46:47.492Z,0
2023-05-22T10:01:49.504Z,0
2023-05-22T10:16:51.069Z,0
2023-05-22T10:31:52.659Z,0
2023-05-22T10:46:54.262Z,0
2023-05-22T11:01:55.986Z,0
2023-05-22T11:16:57.675Z,0
2023-05-22T11:31:59.360Z,0
2023-05-22T11:47:00.985Z,0
2023-05-22T12:02:02.651Z,0
2023-05-22T12:17:04.302Z,0
2023-05-22T12:32:05.994Z,0
2023-05-22T12:47:07.667Z,0
2023-05-22T13:02:09.318Z,1.8
2023-05-22T13:17:10.955Z,1.8
2023-05-22T13:32:12.597Z,1.8
2023-05-22T13:47:14.294Z,1.8
2023-05-22T14:02:16.094Z,1.8
2023-05-22T14:17:17.748Z,1.8
2023-05-22T14:32:19.355Z,3.6
2023-05-22T14:47:20.953Z,3.6
2023-05-22T15:02:24.833Z,3.6
2023-05-22T15:17:26.696Z,5.4
2023-05-22T15:32:28.329Z,9
2023-05-22T15:47:29.976Z,12.6
2023-05-22T16:02:31.683Z,18
2023-05-22T16:17:33.348Z,16.2
2023-05-22T16:32:34.970Z,7.2
2023-05-22T16:47:36.627Z,5.4
2023-05-22T17:02:38.432Z,10.8
2023-05-22T17:17:40.202Z,12.6
2023-05-22T17:32:41.826Z,23.4
2023-05-22T17:47:43.432Z,27
2023-05-22T18:02:45.189Z,39.6
2023-05-22T18:17:46.928Z,37.8
2023-05-22T18:32:48.618Z,27
2023-05-22T18:47:50.355Z,19.8
2023-05-22T19:02:52.025Z,16.2
2023-05-22T19:17:53.776Z,12.6
2023-05-22T19:32:55.510Z,12.6
2023-05-22T19:47:57.232Z,12.6
2023-05-22T20:02:59.010Z,14.4
2023-05-22T20:18:00.770Z,10.8
2023-05-22T20:33:02.512Z,10.8
2023-05-22T20:48:04.430Z,19.8
2023-05-22T21:03:06.165Z,19.8
2023-05-22T21:18:07.868Z,16.2
2023-05-22T21:33:09.627Z,23.4
2023-05-22T21:48:11.276Z,45
2023-05-22T22:03:13.105Z,28.8
2023-05-22T22:18:14.976Z,27
2023-05-22T22:33:16.639Z,16.2
2023-05-22T22:48:18.268Z,14.4
2023-05-22T23:03:19.877Z,16.2
2023-05-22T23:18:21.504Z,14.4
2023-05-22T23:33:23.138Z,10.8
2023-05-22T23:48:24.778Z,9
